Latest Weather Observations for Mount Read

IDT60801

Issued at 6:02 am EDT Saturday 25 February 2017 (issued every 30 minutes, with the page automatically refreshed every 10 minutes)

About weather observations | Map of weather stations | Latest weather observations for TAS | Other Formats
Station Details ID: 097085 Name: MOUNT READ Lat: -41.84 Lon: 145.54 Height: 1119.5 m
Data from the previous 72 hours. | See also: Recent months at Mount Read
Date/Time
EDT
Temp
°C
App
Temp
°C
Dew
Point
°C
Rel
Hum
%
Delta-T
°C
Wind Press
QNH
hPa
Press
MSL
hPa
Rain since
9am
mm
Dir  Spd
km/h
Gust
km/h
Spd
kts
Gust
kts
25/06:00am 1.7 -2.5 1.7 100 0.0 S 13 13 7 7 - 1022.9 -
25/05:30am 1.9 -3.0 1.9 100 0.0 S 17 17 9 9 1024.4 1022.6 3.8
25/05:00am 1.9 -2.6 1.9 100 0.0 S 15 17 8 9 1024.2 1022.5 3.8
25/04:30am 1.7 -3.2 1.7 100 0.0 S 17 17 9 9 1024.2 1022.5 3.8
25/04:00am 1.8 -4.1 1.8 100 0.0 S 22 26 12 14 1024.2 1022.5 3.8
25/03:30am 1.9 -4.3 1.9 100 0.0 SSW 24 28 13 15 1024.1 1022.4 3.8
25/03:00am 2.0 -4.6 2.0 100 0.0 SSW 26 28 14 15 1024.0 1022.3 3.8
25/02:30am 2.1 -4.1 2.1 100 0.0 SSW 24 28 13 15 1024.2 1022.5 3.8
25/02:00am 2.4 -2.8 2.4 100 0.0 S 19 22 10 12 1024.5 1022.7 3.8
25/01:30am 2.4 -2.4 2.4 100 0.0 S 17 20 9 11 1024.8 1023.1 3.8
25/01:00am 2.3 -2.9 2.3 100 0.0 SSW 19 22 10 12 1024.6 1022.9 3.8
25/12:30am 2.5 -2.7 2.5 100 0.0 SSW 19 22 10 12 1024.8 1023.1 3.8
25/12:00am 2.6 -3.1 2.6 100 0.0 SSW 22 28 12 15 1024.6 1022.9 3.8
 
Date/Time
EDT
Temp
°C
App
Temp
°C
Dew
Point
°C
Rel
Hum
%
Delta-T
°C
Wind Press
QNH
hPa
Press
MSL
hPa
Rain since
9am
mm
Dir  Spd
km/h
Gust
km/h
Spd
kts
Gust
kts
24/11:30pm 2.9 -3.9 2.9 100 0.0 S 28 33 15 18 1024.5 1022.7 3.8
24/11:00pm 3.3 -4.2 3.3 100 0.0 S 32 37 17 20 1024.4 1022.6 3.6
24/10:30pm 3.1 -4.5 3.1 100 0.0 SSW 32 37 17 20 1024.5 1022.7 3.6
24/10:00pm 3.7 -4.3 3.7 100 0.0 S 35 43 19 23 1024.4 1022.6 3.6
24/09:30pm 3.8 -4.2 3.8 100 0.0 SSW 35 41 19 22 1024.0 1022.3 3.6
24/09:00pm 4.1 -3.8 4.1 100 0.0 SSW 35 43 19 23 1023.8 1022.1 3.6
24/08:30pm 4.3 -4.0 4.3 100 0.0 SSW 37 46 20 25 1023.4 1021.6 3.6
24/08:00pm 5.1 -1.3 5.1 100 0.0 S 28 39 15 21 1023.2 1021.5 3.6
24/07:30pm 5.2 -2.2 5.2 100 0.0 SW 33 44 18 24 1022.9 1021.1 3.4
24/07:00pm 5.3 -1.1 5.3 100 0.0 SW 28 37 15 20 1022.9 1021.1 3.4
24/06:30pm 5.3 -1.8 5.3 100 0.0 SSW 32 41 17 22 1022.8 1021.0 3.4
24/06:00pm 5.3 -1.5 5.3 100 0.0 S 30 46 16 25 1022.5 1020.7 3.4
24/05:30pm 6.0 -0.6 6.0 100 0.0 SSW 30 39 16 21 1022.4 1020.6 3.4
24/05:00pm 5.8 -2.6 5.8 100 0.0 SW 39 48 21 26 1022.1 1020.3 3.2
24/04:41pm 6.4 0.3 6.4 100 0.0 SSW 28 46 15 25 1022.1 1020.3 3.0
24/04:30pm 6.5 0.8 6.5 100 0.0 SW 26 41 14 22 1022.1 1020.3 2.6
24/04:00pm 6.7 2.1 6.7 100 0.0 SW 20 30 11 16 1022.2 1020.5 2.0
24/03:30pm 6.4 0.6 6.4 100 0.0 SW 26 37 14 20 1022.2 1020.5 1.2
24/03:00pm 6.9 1.6 6.9 100 0.0 SW 24 30 13 16 1022.5 1020.7 1.0
24/02:30pm 6.5 1.1 6.5 100 0.0 SW 24 33 13 18 1022.6 1020.8 1.0
24/02:00pm 6.3 -0.6 6.3 100 0.0 WSW 32 43 17 23 1022.6 1020.8 1.0
24/01:30pm 6.4 0.3 6.4 100 0.0 SW 28 39 15 21 1022.6 1020.8 1.0
24/01:00pm 6.0 0.1 6.0 100 0.0 SW 26 37 14 20 1022.4 1020.6 1.0
24/12:30pm 6.3 0.1 6.3 100 0.0 SW 28 37 15 20 1022.5 1020.7 1.0
24/12:00pm 6.1 1.0 6.1 100 0.0 WSW 22 33 12 18 1022.8 1021.0 0.8
24/11:30am 6.3 0.5 6.3 100 0.0 WSW 26 37 14 20 1022.7 1020.9 0.8
24/11:00am 6.2 1.5 6.2 100 0.0 SW 20 30 11 16 1022.7 1020.9 0.8
24/10:30am 5.1 -2.7 5.1 100 0.0 SW 35 46 19 25 1022.7 1020.9 0.8
24/10:00am 5.3 -1.8 5.3 100 0.0 WSW 32 44 17 24 1022.2 1020.5 0.8
24/09:30am 5.0 -1.4 5.0 100 0.0 WSW 28 41 15 22 1022.4 1020.6 0.4
24/09:00am 4.8 -0.5 4.8 100 0.0 SW 22 30 12 16 1022.1 1020.3 8.8
24/08:30am 4.5 -0.9 4.5 100 0.0 WSW 22 32 12 17 1021.9 1020.1 8.8
24/08:00am 4.4 -1.0 4.4 100 0.0 WSW 22 28 12 15 1021.4 1019.6 8.8
24/07:30am 4.6 -0.2 4.6 100 0.0 WSW 19 26 10 14 1021.2 1019.4 8.8
24/07:00am 4.5 -0.5 4.5 100 0.0 WSW 20 26 11 14 1020.9 1019.1 8.8
24/06:30am 4.4 0.7 4.4 100 0.0 WSW 13 17 7 9 1020.7 1018.9 8.6
24/06:00am 4.2 0.1 4.2 100 0.0 WSW 15 22 8 12 1020.5 1018.6 8.6
24/05:30am 4.0 -0.5 4.0 100 0.0 SW 17 24 9 13 1020.1 1018.3 8.6
24/05:00am 3.9 -1.2 3.9 100 0.0 SW 20 26 11 14 1020.1 1018.3 8.6
24/04:30am 3.6 -2.0 3.6 100 0.0 SW 22 30 12 16 1020.0 1018.2 8.6
24/04:00am 3.5 -1.7 3.5 100 0.0 SW 20 24 11 13 1020.2 1018.4 8.6
24/03:30am 4.3 -0.8 4.3 100 0.0 SSW 20 32 11 17 1020.2 1018.4 8.6
24/03:00am 4.2 -0.3 4.2 100 0.0 SSW 17 20 9 11 1020.2 1018.4 8.6
24/02:30am 4.0 0.2 4.0 100 0.0 SSW 13 20 7 11 1020.2 1018.4 8.6
24/02:00am 4.0 -0.2 4.0 100 0.0 SW 15 20 8 11 1020.5 1018.6 8.6
24/01:30am 4.2 0.5 4.2 100 0.0 WSW 13 19 7 10 1020.7 1018.9 8.6
24/01:00am 4.7 1.4 4.7 100 0.0 WSW 11 17 6 9 1020.8 1019.0 8.6
24/12:30am 4.8 0.8 4.8 100 0.0 WSW 15 19 8 10 1021.0 1019.2 8.6
24/12:00am 5.3 1.0 5.3 100 0.0 SW 17 22 9 12 1021.0 1019.2 8.6
 
Date/Time
EDT
Temp
°C
App
Temp
°C
Dew
Point
°C
Rel
Hum
%
Delta-T
°C
Wind Press
QNH
hPa
Press
MSL
hPa
Rain since
9am
mm
Dir  Spd
km/h
Gust
km/h
Spd
kts
Gust
kts
23/11:30pm 5.7 1.1 5.7 100 0.0 SW 19 24 10 13 1020.9 1019.1 8.4
23/11:00pm 6.2 1.7 6.2 100 0.0 SW 19 22 10 12 1021.0 1019.2 7.8
23/10:30pm 6.5 1.9 6.5 100 0.0 SW 20 24 11 13 1020.8 1019.0 7.2
23/10:00pm 6.7 2.7 6.7 100 0.0 SSW 17 22 9 12 1020.6 1018.8 7.0
23/09:30pm 6.8 2.5 6.8 100 0.0 SW 19 20 10 11 1020.2 1018.4 6.6
23/09:00pm 7.0 2.1 7.0 100 0.0 SW 22 28 12 15 1019.7 1017.8 6.6
23/08:30pm 7.4 1.9 7.4 100 0.0 SW 26 32 14 17 1019.1 1017.3 6.6
23/08:00pm 8.2 4.0 8.2 100 0.0 SW 20 28 11 15 1018.8 1016.9 6.2
23/07:30pm 8.6 4.5 8.6 100 0.0 WSW 20 28 11 15 1018.6 1016.7 6.0
23/07:00pm 8.8 4.7 8.8 100 0.0 W 20 28 11 15 1018.3 1016.5 5.8
23/06:30pm 9.0 5.9 9.0 100 0.0 W 15 22 8 12 1018.2 1016.4 5.6
23/06:00pm 8.9 5.1 8.9 100 0.0 W 19 28 10 15 1017.9 1016.0 5.4
23/05:30pm 9.4 5.5 9.4 100 0.0 W 20 26 11 14 1017.4 1015.6 5.2
23/05:00pm 9.7 6.1 9.7 100 0.0 W 19 26 10 14 1017.2 1015.3 5.2
23/04:30pm 9.9 6.3 9.9 100 0.0 W 19 24 10 13 1016.8 1014.9 5.2
23/04:00pm 10.1 8.1 10.1 100 0.0 WNW 11 15 6 8 1016.7 1014.8 5.2
23/03:30pm 9.5 6.2 9.5 100 0.0 WNW 17 26 9 14 1016.8 1014.9 5.2
23/03:00pm 9.6 5.9 9.6 100 0.0 W 19 30 10 16 1016.6 1014.6 5.2
23/02:30pm 9.5 6.6 9.5 100 0.0 NW 15 28 8 15 1016.4 1014.5 5.2
23/02:00pm 9.9 6.1 9.9 100 0.0 NW 20 33 11 18 1016.1 1014.2 5.2
23/01:30pm 9.3 5.0 9.3 100 0.0 NW 22 33 12 18 1016.0 1014.1 4.8
23/01:00pm 9.0 4.2 9.0 100 0.0 WNW 24 37 13 20 1015.8 1013.8 4.8
23/12:30pm 8.8 4.7 8.8 100 0.0 NNW 20 37 11 20 1015.3 1013.4 4.8
23/12:00pm 8.9 3.0 8.9 100 0.0 NW 30 46 16 25 1014.9 1012.9 4.8
23/11:30am 9.4 5.5 9.4 100 0.0 NW 20 41 11 22 1014.7 1012.7 3.6
23/11:00am 9.3 5.9 9.3 100 0.0 NNW 17 35 9 19 1014.1 1012.1 3.2
23/10:30am 9.0 5.2 9.0 100 0.0 NNW 19 33 10 18 1013.9 1011.9 2.0
23/10:00am 8.7 2.3 8.7 100 0.0 NW 32 59 17 32 1012.8 1010.8 1.2
23/09:30am 8.8 2.5 8.8 100 0.0 NW 32 50 17 27 1012.5 1010.5 0.6
23/09:25am 8.8 3.2 8.8 100 0.0 NNW 28 50 15 27 1012.5 1010.5 0.6
23/09:00am 8.7 3.5 8.7 100 0.0 NNW 26 54 14 29 1012.2 1010.2 2.8
23/08:30am 8.5 1.9 8.5 100 0.0 NNW 33 57 18 31 1011.6 1009.6 1.8
23/08:00am 8.3 -0.3 8.3 100 0.0 NNW 43 70 23 38 1011.2 1009.2 1.0
23/07:38am 8.5 1.9 8.5 100 0.0 NNW 33 54 18 29 1010.8 1008.7 0.6
23/07:30am 8.4 1.4 8.4 100 0.0 NNW 35 48 19 26 1010.4 1008.4 0.6
23/07:01am 8.3 0.9 8.3 100 0.0 NNW 37 57 20 31 1009.9 1007.8 0.2
23/07:00am 8.3 0.5 8.3 100 0.0 NNW 39 57 21 31 1009.9 1007.8 0.2
23/06:33am 8.3 0.9 8.3 100 0.0 NNW 37 56 20 30 1009.6 1007.6 0.0
23/06:30am 8.3 0.5 8.3 100 0.0 NNW 39 56 21 30 1009.5 1007.4 0.0
23/06:04am 8.3 0.5 8.3 100 0.0 NNW 39 57 21 31 1009.2 1007.1 0.0
23/06:00am 8.6 0.5 8.6 100 0.0 NNW 41 57 22 31 1009.2 1007.1 0.0
23/05:30am 9.0 1.4 9.0 100 0.0 N 39 50 21 27 1009.1 1007.0 0.0
23/05:13am 8.9 1.6 8.9 100 0.0 NNW 37 56 20 30 1009.2 1007.1 0.0
23/05:00am 9.1 1.9 9.1 100 0.0 N 37 50 20 27 1009.3 1007.2 0.0
23/04:30am 9.2 2.4 9.2 100 0.0 N 35 52 19 28 1009.2 1007.1 0.0
23/04:00am 9.5 2.4 9.5 100 0.0 N 37 52 20 28 1009.2 1007.1 0.0
23/03:30am 9.9 2.9 9.9 100 0.0 NNW 37 56 20 30 1009.3 1007.2 0.0
23/03:21am 10.0 1.7 10.0 100 0.0 NNW 44 63 24 34 1009.3 1007.2 0.0
23/03:00am 10.3 2.6 10.3 100 0.0 N 41 57 22 31 1009.1 1007.0 0.0
23/02:31am 10.8 3.5 10.3 97 0.3 N 39 57 21 31 1009.1 1007.0 0.0
23/02:30am 10.8 3.5 10.3 97 0.3 N 39 56 21 30 1009.0 1006.9 0.0
23/02:00am 11.1 2.4 9.9 92 0.6 NNE 46 67 25 36 1008.6 1006.5 0.0
23/01:30am 11.0 1.0 10.8 99 0.1 N 54 76 29 41 1009.5 1007.4 0.0
23/01:09am 11.4 0.4 9.0 85 1.3 N 57 87 31 47 1009.1 1007.0 0.0
23/01:01am 11.3 2.5 8.0 80 1.7 N 44 63 24 34 1009.5 1007.4 0.0
23/01:00am 11.2 2.4 8.2 82 1.6 N 44 61 24 33 1009.5 1007.4 0.0
23/12:30am 12.3 2.3 8.0 75 2.2 N 50 63 27 34 1009.8 1007.7 0.0
23/12:00am 13.8 5.0 7.1 64 3.5 N 43 67 23 36 1009.6 1007.6 0.0
 
Date/Time
EDT
Temp
°C
App
Temp
°C
Dew
Point
°C
Rel
Hum
%
Delta-T
°C
Wind Press
QNH
hPa
Press
MSL
hPa
Rain since
9am
mm
Dir  Spd
km/h
Gust
km/h
Spd
kts
Gust
kts
22/11:30pm 14.5 6.0 6.8 60 4.0 NNE 41 65 22 35 1010.0 1007.9 0.0
22/11:00pm 14.7 5.4 6.0 56 4.4 NNE 44 69 24 37 1010.6 1008.6 0.0
22/10:30pm 14.4 4.1 4.7 52 4.8 NNE 48 74 26 40 1011.1 1009.0 0.0
22/10:00pm 13.5 3.2 4.9 56 4.3 NNE 48 69 26 37 1011.1 1009.0 0.0
22/09:31pm 13.3 2.6 4.5 55 4.3 NNE 50 70 27 38 1011.2 1009.2 0.0
22/09:30pm 13.1 2.8 4.5 56 4.2 NNE 48 63 26 34 1011.2 1009.2 0.0
22/09:00pm 12.6 2.4 5.3 61 3.6 NNE 48 69 26 37 1012.3 1010.3 0.0
22/08:47pm 12.4 3.2 5.3 62 3.5 NNE 43 61 23 33 1012.0 1010.0 0.0
22/08:30pm 12.4 3.1 5.8 64 3.3 NNE 44 57 24 31 1012.1 1010.1 0.0
22/08:00pm 12.4 4.2 6.7 68 2.9 NNE 39 54 21 29 1012.2 1010.2 0.0
22/07:30pm 12.4 3.5 6.9 69 2.8 NNE 43 63 23 34 1012.1 1010.1 0.0
22/07:20pm 12.7 2.9 7.0 68 2.9 NNE 48 69 26 37 1011.8 1009.7 0.0
22/07:00pm 12.5 2.3 7.0 69 2.8 NNE 50 65 27 35 1012.0 1010.0 0.0
22/06:30pm 12.9 2.6 6.3 64 3.3 NNE 50 69 27 37 1012.5 1010.5 0.0
22/06:26pm 13.1 3.6 6.5 64 3.4 NNE 46 67 25 36 1012.3 1010.3 0.0
22/06:00pm 13.8 3.1 6.4 61 3.8 N 52 65 28 35 1012.7 1010.6 0.0
22/05:30pm 14.5 5.3 6.3 58 4.2 NNE 44 57 24 31 1013.1 1011.1 0.0
22/05:04pm 14.4 3.7 6.3 58 4.1 NNE 52 70 28 38 1012.9 1010.9 0.0
22/05:00pm 14.5 2.9 5.6 55 4.5 NNE 56 70 30 38 1012.4 1010.4 0.0
22/04:30pm 14.8 3.2 5.9 55 4.5 NNE 56 76 30 41 1012.3 1010.3 0.0
22/04:00pm 15.2 4.2 6.7 57 4.4 NNE 54 80 29 43 1013.1 1011.1 0.0
22/03:30pm 15.1 3.1 6.7 57 4.4 NNE 59 85 32 46 1013.2 1011.2 0.0
22/03:19pm 15.1 3.6 6.4 56 4.5 NNE 56 76 30 41 1013.4 1011.4 0.0
22/03:00pm 15.3 3.9 7.6 60 4.1 NNE 57 70 31 38 1013.7 1011.7 0.0
22/02:50pm 15.1 3.9 7.6 61 4.0 NNE 56 78 30 42 1013.9 1011.9 0.0
22/02:30pm 15.6 5.3 8.1 61 4.0 NNE 52 67 28 36 1014.1 1012.1 0.0
22/02:00pm 13.8 2.5 7.3 65 3.4 N 56 74 30 40 1014.4 1012.5 0.0
22/01:32pm 14.6 4.8 7.2 61 3.9 NNE 48 67 26 36 1014.9 1012.9 0.0
22/01:30pm 14.6 4.5 7.4 62 3.8 NNE 50 63 27 34 1015.0 1013.0 0.0
22/01:00pm 13.8 4.1 7.6 66 3.2 NNE 48 61 26 33 1015.4 1013.5 0.0
22/12:30pm 12.7 5.1 7.6 71 2.6 NNE 37 50 20 27 1015.9 1014.0 0.0
22/12:00pm 12.8 4.3 7.0 68 3.0 N 41 48 22 26 1016.3 1014.4 0.0
22/11:30am 13.1 5.7 6.9 66 3.2 NNE 35 43 19 23 1016.4 1014.5 0.0
22/11:00am 11.8 3.7 5.4 65 3.2 N 37 44 20 24 1016.4 1014.5 0.0
22/10:30am 11.1 2.7 3.9 61 3.4 N 37 46 20 25 1016.6 1014.6 0.0
22/10:00am 10.1 2.5 2.9 61 3.3 N 32 41 17 22 1017.1 1015.2 0.0
22/09:30am 10.3 2.5 2.7 59 3.5 N 33 41 18 22 1017.0 1015.1 0.0
22/09:00am 8.5 -0.2 2.3 65 2.8 N 37 46 20 25 1017.0 1015.1 0.0
22/08:30am 7.7 -0.6 2.0 67 2.5 N 35 44 19 24 1016.9 1015.0 0.0
22/08:00am 7.2 -1.1 2.3 71 2.2 N 35 46 19 25 1016.8 1014.9 0.0
22/07:30am 6.4 -1.7 3.2 80 1.4 N 35 48 19 26 1016.6 1014.6 0.0
22/07:00am 6.4 -2.2 2.7 77 1.6 N 37 48 20 26 1016.6 1014.6 0.0
22/06:30am 6.4 -2.6 2.7 77 1.6 N 39 46 21 25 1016.3 1014.4 0.0

Other Formats:

Comma delimited format used in spreadsheet applications
http://www.bom.gov.au/fwo/IDT60801/IDT60801.95952.axf

JavaScript Object Notation format (JSON) in row-major order
http://www.bom.gov.au/fwo/IDT60801/IDT60801.95952.json